createdAt,value
2019-05-21T00:00:32.415Z,23.98
2019-05-21T00:03:01.737Z,24.15
2019-05-21T00:05:31.358Z,24.50
2019-05-21T00:08:00.968Z,25.25
2019-05-21T00:10:30.287Z,25.08
2019-05-21T00:12:59.868Z,21.37
2019-05-21T00:15:29.661Z,24.70
2019-05-21T00:17:58.991Z,25.32
2019-05-21T00:20:28.622Z,22.00
2019-05-21T00:22:57.929Z,24.55
2019-05-21T00:25:27.251Z,24.55
2019-05-21T00:28:36.088Z,23.65
2019-05-21T00:31:59.950Z,26.87
2019-05-21T00:35:25.251Z,27.70
2019-05-21T00:38:51.937Z,26.68
2019-05-21T00:42:05.189Z,25.27
2019-05-21T00:44:45.023Z,25.37
2019-05-21T00:47:14.762Z,28.15
2019-05-21T00:49:44.060Z,26.73
2019-05-21T00:52:13.199Z,27.70
2019-05-21T00:54:42.509Z,28.45
2019-05-21T00:57:11.996Z,27.22
2019-05-21T00:59:41.252Z,25.88
2019-05-21T01:02:10.584Z,28.77
2019-05-21T01:04:39.894Z,31.55
2019-05-21T01:07:09.551Z,30.00
2019-05-21T01:09:38.866Z,28.98
2019-05-21T01:12:08.188Z,27.02
2019-05-21T01:14:37.490Z,30.45
2019-05-21T01:17:06.867Z,27.30
2019-05-21T01:19:36.462Z,30.08
2019-05-21T01:22:05.865Z,29.15
2019-05-21T01:24:35.166Z,29.10
2019-05-21T01:27:05.182Z,26.17
2019-05-21T01:31:02.621Z,29.70
2019-05-21T01:33:31.919Z,27.90
2019-05-21T01:36:01.561Z,28.52
2019-05-21T01:38:30.891Z,28.15
2019-05-21T01:41:00.244Z,27.52
2019-05-21T01:43:29.864Z,26.60
2019-05-21T01:45:59.176Z,27.15
2019-05-21T01:48:28.497Z,28.87
2019-05-21T01:50:57.823Z,28.52
2019-05-21T01:53:27.377Z,27.35
2019-05-21T01:55:56.687Z,28.57
2019-05-21T01:58:26.015Z,26.77
2019-05-21T02:00:55.321Z,32.63
2019-05-21T02:03:24.659Z,27.73
2019-05-21T02:05:54.572Z,28.65
2019-05-21T02:08:23.903Z,27.10
2019-05-21T02:10:53.948Z,27.20
2019-05-21T02:13:23.267Z,27.95
2019-05-21T02:15:52.600Z,28.85
2019-05-21T02:18:22.215Z,29.25
2019-05-21T02:20:51.531Z,24.92
2019-05-21T02:23:20.894Z,25.68
2019-05-21T02:25:50.189Z,24.32
2019-05-21T02:28:19.831Z,25.20
2019-05-21T02:30:49.185Z,23.00
2019-05-21T02:33:18.483Z,23.73
2019-05-21T02:35:54.253Z,22.17
2019-05-21T02:38:18.856Z,22.37
2019-05-21T02:40:48.230Z,20.45
2019-05-21T02:43:17.549Z,22.48
2019-05-21T02:45:46.922Z,22.70
2019-05-21T02:48:16.486Z,21.87
2019-05-21T02:50:45.895Z,24.02
2019-05-21T02:53:15.198Z,21.57
2019-05-21T02:55:44.764Z,20.95
2019-05-21T02:58:14.165Z,20.85
2019-05-21T03:00:45.819Z,23.18
2019-05-21T03:03:16.788Z,17.75
2019-05-21T03:05:46.172Z,21.50
2019-05-21T03:08:15.431Z,20.62
2019-05-21T03:10:44.999Z,20.27
2019-05-21T03:13:14.312Z,20.55
2019-05-21T03:15:43.642Z,21.70
2019-05-21T03:18:14.593Z,18.73
2019-05-21T03:20:45.446Z,20.55
2019-05-21T03:23:15.078Z,20.02
2019-05-21T03:25:44.684Z,19.62
2019-05-21T03:28:14.006Z,18.10
2019-05-21T03:30:43.309Z,21.62
2019-05-21T03:33:12.904Z,21.27
2019-05-21T03:35:42.265Z,22.30
2019-05-21T03:38:11.537Z,22.42
2019-05-21T03:40:40.984Z,23.35
2019-05-21T03:43:10.318Z,20.50
2019-05-21T03:45:39.642Z,21.27
2019-05-21T03:48:08.982Z,21.30
2019-05-21T03:50:38.301Z,24.37
2019-05-21T03:53:07.601Z,24.23
2019-05-21T03:55:36.918Z,23.70
2019-05-21T03:58:06.513Z,25.20
2019-05-21T04:00:35.892Z,26.42
2019-05-21T04:03:05.935Z,24.07
2019-05-21T04:05:35.245Z,25.12
2019-05-21T04:08:04.841Z,25.80
2019-05-21T04:10:34.437Z,27.62
2019-05-21T04:13:07.286Z,28.20
2019-05-21T04:15:56.362Z,27.62
2019-05-21T04:18:42.268Z,26.35
2019-05-21T04:21:11.594Z,28.47
2019-05-21T04:23:40.901Z,28.60
2019-05-21T04:26:10.482Z,28.47
2019-05-21T04:28:39.787Z,27.77
2019-05-21T04:31:09.145Z,28.83
2019-05-21T04:33:38.465Z,26.27
2019-05-21T04:36:08.165Z,27.93
2019-05-21T04:38:37.454Z,29.50
2019-05-21T04:41:06.814Z,29.18
2019-05-21T04:43:36.161Z,27.90
2019-05-21T04:46:06.573Z,28.52
2019-05-21T04:48:35.892Z,29.30
2019-05-21T04:51:05.224Z,30.08
2019-05-21T04:53:34.538Z,26.12
2019-05-21T04:56:04.150Z,27.35
2019-05-21T04:58:33.471Z,27.10
2019-05-21T05:01:02.773Z,29.23
2019-05-21T05:03:32.090Z,28.62
2019-05-21T05:06:01.639Z,27.13
2019-05-21T05:08:32.509Z,24.45
2019-05-21T05:11:01.818Z,27.15
2019-05-21T05:13:31.193Z,25.43
2019-05-21T05:16:03.946Z,27.10
2019-05-21T05:18:31.822Z,27.80
2019-05-21T05:21:01.530Z,25.35
2019-05-21T05:23:30.865Z,26.30
2019-05-21T05:26:03.748Z,28.17
2019-05-21T05:28:33.349Z,28.25
2019-05-21T05:35:02.293Z,28.80
2019-05-21T05:37:43.374Z,26.45
2019-05-21T05:40:04.333Z,28.05
2019-05-21T05:42:33.951Z,26.33
2019-05-21T05:45:05.022Z,24.67
2019-05-21T05:47:34.581Z,29.95
2019-05-21T05:50:08.286Z,26.93
2019-05-21T05:52:37.611Z,28.57
2019-05-21T05:55:08.454Z,25.70
2019-05-21T05:57:37.758Z,24.82
2019-05-21T06:00:10.962Z,26.48
2019-05-21T06:02:40.340Z,22.02
2019-05-21T06:05:10.961Z,26.95
2019-05-21T06:07:40.552Z,26.10
2019-05-21T06:10:10.395Z,23.42
2019-05-21T06:12:39.675Z,25.85
2019-05-21T06:15:09.139Z,28.05
2019-05-21T06:17:38.456Z,20.10
2019-05-21T06:20:09.176Z,26.85
2019-05-21T06:22:38.699Z,26.73
2019-05-21T06:25:10.134Z,25.55
2019-05-21T06:27:39.515Z,22.55
2019-05-21T06:30:10.055Z,24.07
2019-05-21T06:32:39.357Z,25.27
2019-05-21T06:35:08.821Z,23.60
2019-05-21T06:37:38.168Z,23.80
2019-05-21T06:40:08.618Z,29.07
2019-05-21T06:42:38.223Z,26.23
2019-05-21T06:45:08.850Z,28.52
2019-05-21T06:47:38.468Z,27.17
2019-05-21T06:50:07.995Z,25.40
2019-05-21T06:52:37.313Z,25.97
2019-05-21T06:55:07.282Z,25.80
2019-05-21T06:57:36.599Z,23.07
2019-05-21T07:00:09.791Z,26.20
2019-05-21T07:02:39.104Z,21.45
2019-05-21T07:05:08.886Z,22.58
2019-05-21T07:07:38.199Z,24.00
2019-05-21T07:10:08.818Z,24.12
2019-05-21T07:12:38.151Z,24.63
2019-05-21T07:15:09.370Z,22.13
2019-05-21T07:17:39.586Z,23.47
2019-05-21T07:20:10.215Z,26.82
2019-05-21T07:22:39.657Z,24.80
2019-05-21T07:25:11.240Z,26.25
2019-05-21T07:27:40.537Z,27.10
2019-05-21T07:30:10.384Z,26.00
2019-05-21T07:32:39.991Z,27.50
2019-05-21T07:35:09.628Z,27.25
2019-05-21T07:37:39.226Z,27.45
2019-05-21T07:40:10.638Z,22.75
2019-05-21T07:42:40.267Z,25.68
2019-05-21T07:45:10.430Z,28.17
2019-05-21T07:47:39.730Z,27.40
2019-05-21T07:50:09.648Z,28.00
2019-05-21T07:52:39.221Z,33.75
2019-05-21T07:55:08.881Z,26.15
2019-05-21T07:57:38.537Z,23.02
2019-05-21T08:00:09.262Z,22.25
2019-05-21T08:02:38.604Z,26.55
2019-05-21T08:05:08.366Z,23.30
2019-05-21T08:07:37.971Z,23.77
2019-05-21T08:10:09.072Z,24.60
2019-05-21T08:12:39.986Z,23.45
2019-05-21T08:15:11.602Z,22.37
2019-05-21T08:17:40.885Z,20.50
2019-05-21T08:20:12.302Z,20.05
2019-05-21T08:22:41.714Z,22.55
2019-05-21T08:25:14.557Z,22.52
2019-05-21T08:27:42.627Z,22.13
2019-05-21T08:30:12.279Z,22.20
2019-05-21T08:32:41.611Z,24.30
2019-05-21T08:35:11.087Z,19.42
2019-05-21T08:37:40.391Z,22.52
2019-05-21T08:40:11.266Z,19.02
2019-05-21T08:42:40.597Z,20.12
2019-05-21T08:45:12.379Z,18.50
2019-05-21T08:47:41.935Z,22.00
2019-05-21T08:50:12.272Z,23.12
2019-05-21T08:52:41.864Z,22.02
2019-05-21T08:55:11.955Z,19.73
2019-05-21T08:57:41.499Z,21.23
2019-05-21T09:00:17.803Z,22.40
2019-05-21T09:02:47.101Z,20.97
2019-05-21T09:05:16.917Z,21.70
2019-05-21T09:07:52.632Z,23.57
2019-05-21T09:10:18.122Z,21.45
2019-05-21T09:12:47.737Z,22.85
2019-05-21T09:15:17.886Z,24.65
2019-05-21T09:17:47.277Z,20.17
2019-05-21T09:20:18.627Z,24.18
2019-05-21T09:22:48.236Z,22.77
2019-05-21T09:25:17.992Z,22.48
2019-05-21T09:27:50.268Z,26.27
2019-05-21T09:30:20.367Z,22.50
2019-05-21T09:32:49.741Z,23.42
2019-05-21T09:35:19.188Z,23.95
2019-05-21T09:37:48.820Z,21.65
2019-05-21T09:40:21.885Z,22.77
2019-05-21T09:42:51.479Z,20.97
2019-05-21T09:45:21.963Z,20.92
2019-05-21T09:47:51.768Z,22.30
2019-05-21T09:50:21.602Z,21.37
2019-05-21T09:52:51.370Z,24.07
2019-05-21T09:55:20.862Z,22.25
2019-05-21T09:57:57.766Z,24.10
2019-05-21T10:00:30.358Z,21.75
2019-05-21T10:02:59.676Z,22.93
2019-05-21T10:05:41.423Z,21.57
2019-05-21T10:08:10.811Z,22.37
2019-05-21T10:10:40.131Z,25.15
2019-05-21T10:13:09.756Z,20.37
2019-05-21T10:15:39.113Z,24.47
2019-05-21T10:18:08.409Z,25.70
2019-05-21T10:20:37.717Z,21.35
2019-05-21T10:23:07.047Z,22.05
2019-05-21T10:25:36.433Z,21.42
2019-05-21T10:28:05.774Z,24.07
2019-05-21T10:30:35.163Z,26.35
2019-05-21T10:33:04.864Z,24.40
2019-05-21T10:35:34.237Z,23.47
2019-05-21T10:38:04.115Z,17.80
2019-05-21T10:40:35.054Z,22.80
2019-05-21T10:43:04.621Z,21.00
2019-05-21T10:45:33.979Z,21.02
2019-05-21T10:48:03.377Z,22.05
2019-05-21T10:50:32.860Z,21.68
2019-05-21T10:53:02.152Z,24.63
2019-05-21T10:55:31.738Z,24.25
2019-05-21T10:58:01.443Z,26.40
2019-05-21T11:00:31.506Z,24.05
2019-05-21T11:03:13.818Z,23.40
2019-05-21T11:05:45.173Z,24.37
2019-05-21T11:08:23.956Z,22.17
2019-05-21T11:10:47.595Z,23.85
2019-05-21T11:13:17.417Z,24.82
2019-05-21T11:15:46.819Z,27.25
2019-05-21T11:18:16.321Z,24.18
2019-05-21T11:20:45.670Z,24.20
2019-05-21T11:23:15.167Z,25.30
2019-05-21T11:25:44.475Z,23.20
2019-05-21T11:28:13.871Z,22.87
2019-05-21T11:30:43.357Z,23.47
2019-05-21T11:33:12.708Z,21.68
2019-05-21T11:35:42.037Z,21.05
2019-05-21T11:38:11.658Z,22.07
2019-05-21T11:40:41.005Z,24.25
2019-05-21T11:43:10.608Z,28.42
2019-05-21T11:45:39.923Z,24.82
2019-05-21T11:48:09.319Z,24.27
2019-05-21T11:50:38.624Z,25.88
2019-05-21T11:53:08.268Z,30.85
2019-05-21T11:55:37.612Z,24.95
2019-05-21T11:58:06.953Z,32.33
2019-05-21T12:00:36.880Z,23.02
2019-05-21T12:03:06.594Z,21.65
2019-05-21T12:05:35.960Z,24.15
2019-05-21T12:08:05.288Z,24.95
2019-05-21T12:10:34.678Z,25.88
2019-05-21T12:13:04.322Z,21.57
2019-05-21T12:15:33.962Z,24.10
2019-05-21T12:18:03.324Z,22.73
2019-05-21T12:20:36.831Z,21.93
2019-05-21T12:23:03.725Z,21.70
2019-05-21T12:25:33.043Z,21.42
2019-05-21T12:28:02.661Z,22.17
2019-05-21T12:30:32.194Z,23.83
2019-05-21T12:33:01.488Z,21.52
2019-05-21T12:35:33.230Z,24.60
2019-05-21T12:38:02.521Z,24.70
2019-05-21T12:40:31.833Z,20.12
2019-05-21T12:43:01.438Z,25.17
2019-05-21T12:45:30.750Z,23.65
2019-05-21T12:48:00.070Z,20.92
2019-05-21T12:50:29.649Z,22.27
2019-05-21T12:52:58.975Z,23.25
2019-05-21T12:55:29.581Z,20.32
2019-05-21T12:57:59.177Z,22.52
2019-05-21T13:00:34.723Z,23.65
2019-05-21T13:03:04.581Z,23.47
2019-05-21T13:05:34.165Z,20.45
2019-05-21T13:08:07.771Z,24.23
2019-05-21T13:10:37.138Z,21.15
2019-05-21T13:13:07.323Z,20.27
2019-05-21T13:15:36.988Z,21.73
2019-05-21T13:18:06.544Z,20.55
2019-05-21T13:20:35.864Z,23.60
2019-05-21T13:23:05.642Z,19.55
2019-05-21T13:25:36.301Z,20.90
2019-05-21T13:28:06.335Z,20.68
2019-05-21T13:30:35.665Z,19.98
2019-05-21T13:33:05.507Z,20.88
2019-05-21T13:35:34.807Z,21.48
2019-05-21T13:38:04.703Z,21.23
2019-05-21T13:40:35.989Z,22.20
2019-05-21T13:43:06.151Z,21.27
2019-05-21T13:45:35.466Z,19.42
2019-05-21T13:48:04.859Z,27.93
2019-05-21T13:50:34.264Z,19.25
2019-05-21T13:53:03.638Z,20.00
2019-05-21T13:55:35.959Z,20.35
2019-05-21T13:58:06.116Z,21.15
2019-05-21T14:00:49.626Z,22.98
2019-05-21T14:03:18.943Z,19.45
2019-05-21T14:05:48.610Z,23.42
2019-05-21T14:08:18.598Z,23.42
2019-05-21T14:10:48.533Z,22.98
2019-05-21T14:13:17.995Z,22.77
2019-05-21T14:15:47.621Z,21.30
2019-05-21T14:18:17.341Z,20.15
2019-05-21T14:20:46.756Z,18.95
2019-05-21T14:23:16.088Z,20.77
2019-05-21T14:25:45.397Z,22.55
2019-05-21T14:28:14.707Z,18.90
2019-05-21T14:30:44.023Z,18.52
2019-05-21T14:33:13.396Z,21.25
2019-05-21T14:35:42.753Z,18.15
2019-05-21T14:38:12.349Z,19.42
2019-05-21T14:40:41.956Z,19.87
2019-05-21T14:43:11.278Z,19.70
2019-05-21T14:45:40.594Z,17.45
2019-05-21T14:48:10.226Z,19.60
2019-05-21T14:50:39.770Z,19.02
2019-05-21T14:53:09.258Z,20.85
2019-05-21T14:55:38.601Z,17.73
2019-05-21T14:58:07.917Z,20.92
2019-05-21T15:00:37.961Z,20.10
2019-05-21T15:03:07.300Z,17.90
2019-05-21T15:05:37.025Z,15.08
2019-05-21T15:08:06.929Z,17.92
2019-05-21T15:10:47.796Z,16.97
2019-05-21T15:13:07.403Z,18.80
2019-05-21T15:15:36.787Z,17.55
2019-05-21T15:18:06.613Z,17.90
2019-05-21T15:20:40.597Z,18.70
2019-05-21T15:23:09.927Z,17.87
2019-05-21T15:25:39.616Z,19.42
2019-05-21T15:28:08.935Z,18.90
2019-05-21T15:30:38.431Z,20.62
2019-05-21T15:33:07.755Z,20.68
2019-05-21T15:35:37.404Z,19.05
2019-05-21T15:38:07.109Z,21.90
2019-05-21T15:40:36.496Z,25.02
2019-05-21T15:43:05.838Z,15.60
2019-05-21T15:45:35.512Z,22.77
2019-05-21T15:48:04.908Z,17.07
2019-05-21T15:50:34.539Z,18.52
2019-05-21T15:53:04.342Z,18.27
2019-05-21T15:55:34.613Z,20.85
2019-05-21T15:58:04.277Z,18.30
2019-05-21T16:00:34.197Z,22.00
2019-05-21T16:03:03.848Z,21.37
2019-05-21T16:05:33.640Z,21.12
2019-05-21T16:08:03.052Z,16.12
2019-05-21T16:10:32.380Z,17.67
2019-05-21T16:13:02.041Z,19.52
2019-05-21T16:15:31.690Z,19.25
2019-05-21T16:18:01.013Z,16.37
2019-05-21T16:20:30.404Z,19.37
2019-05-21T16:22:59.746Z,18.73
2019-05-21T16:25:29.355Z,18.35
2019-05-21T16:27:58.675Z,19.20
2019-05-21T16:30:28.074Z,16.50
2019-05-21T16:32:57.407Z,20.12
2019-05-21T16:35:27.340Z,17.57
2019-05-21T16:37:56.667Z,18.80
2019-05-21T16:40:26.289Z,19.00
2019-05-21T16:42:55.614Z,17.87
2019-05-21T16:45:25.008Z,18.42
2019-05-21T16:47:55.311Z,20.52
2019-05-21T16:50:24.621Z,18.80
2019-05-21T16:52:54.002Z,21.35
2019-05-21T16:55:23.587Z,17.57
2019-05-21T16:57:56.148Z,17.02
2019-05-21T17:00:26.757Z,18.02
2019-05-21T17:02:56.077Z,16.60
2019-05-21T17:05:25.723Z,20.20
2019-05-21T17:07:55.334Z,18.05
2019-05-21T17:10:24.725Z,16.73
2019-05-21T17:12:54.346Z,16.10
2019-05-21T17:15:23.656Z,16.87
2019-05-21T17:17:53.201Z,15.48
2019-05-21T17:20:22.516Z,19.20
2019-05-21T17:22:51.832Z,15.50
2019-05-21T17:25:21.148Z,20.10
2019-05-21T17:27:50.662Z,19.52
2019-05-21T17:30:21.166Z,17.35
2019-05-21T17:32:50.483Z,17.62
2019-05-21T17:35:20.088Z,17.12
2019-05-21T17:37:49.401Z,18.80
2019-05-21T17:40:21.483Z,15.35
2019-05-21T17:43:04.252Z,15.03
2019-05-21T17:45:37.929Z,15.58
2019-05-21T17:48:07.243Z,18.15
2019-05-21T17:50:36.880Z,16.32
2019-05-21T17:53:06.262Z,17.82
2019-05-21T17:55:36.667Z,14.83
2019-05-21T17:58:06.019Z,13.48
2019-05-21T18:00:37.151Z,16.12
2019-05-21T18:03:06.863Z,13.95
2019-05-21T18:05:36.352Z,16.00
2019-05-21T18:08:06.101Z,14.33
2019-05-21T18:10:35.778Z,15.20
2019-05-21T18:13:06.025Z,15.18
2019-05-21T18:15:36.435Z,13.72
2019-05-21T18:18:08.803Z,15.35
2019-05-21T18:20:39.079Z,15.32
2019-05-21T18:23:09.588Z,15.80
2019-05-21T18:25:39.267Z,15.43
2019-05-21T18:28:08.584Z,16.52
2019-05-21T18:30:38.382Z,13.03
2019-05-21T18:33:07.751Z,15.15
2019-05-21T18:35:37.136Z,16.42
2019-05-21T18:38:06.435Z,15.75
2019-05-21T18:40:35.821Z,16.07
2019-05-21T18:43:05.393Z,16.93
2019-05-21T18:45:35.943Z,14.65
2019-05-21T18:48:07.194Z,15.80
2019-05-21T18:50:37.249Z,15.38
2019-05-21T18:53:10.856Z,14.00
2019-05-21T18:55:43.203Z,13.88
2019-05-21T18:58:17.463Z,15.35
2019-05-21T19:00:47.500Z,16.20
2019-05-21T19:03:25.356Z,14.63
2019-05-21T19:05:52.995Z,14.10
2019-05-21T19:08:26.292Z,15.05
2019-05-21T19:11:04.968Z,14.13
2019-05-21T19:13:40.719Z,12.58
2019-05-21T19:16:11.845Z,14.65
2019-05-21T19:18:41.366Z,19.12
2019-05-21T19:21:14.975Z,14.47
2019-05-21T19:23:46.211Z,11.88
2019-05-21T19:26:15.800Z,12.65
2019-05-21T19:28:47.071Z,15.28
2019-05-21T19:31:21.257Z,13.88
2019-05-21T19:33:52.152Z,12.35
2019-05-21T19:36:23.223Z,14.78
2019-05-21T19:38:54.334Z,14.28
2019-05-21T19:41:31.420Z,16.10
2019-05-21T19:44:02.386Z,14.70
2019-05-21T19:46:44.586Z,16.45
2019-05-21T19:49:19.552Z,20.30
2019-05-21T19:51:51.963Z,16.65
2019-05-21T19:54:22.666Z,16.75
2019-05-21T19:56:51.991Z,16.35
2019-05-21T19:59:24.720Z,14.78
2019-05-21T20:02:02.297Z,15.83
2019-05-21T20:04:37.698Z,17.20
2019-05-21T20:07:17.556Z,16.85
2019-05-21T20:09:48.803Z,14.65
2019-05-21T20:12:18.137Z,14.13
2019-05-21T20:14:47.901Z,15.58
2019-05-21T20:17:18.111Z,14.73
2019-05-21T20:19:49.988Z,16.07
2019-05-21T20:22:20.139Z,16.32
2019-05-21T20:24:50.884Z,16.80
2019-05-21T20:27:20.472Z,15.53
2019-05-21T20:29:50.651Z,13.03
2019-05-21T20:32:21.538Z,19.23
2019-05-21T20:34:51.751Z,16.95
2019-05-21T20:37:22.812Z,14.20
2019-05-21T20:39:52.755Z,15.25
2019-05-21T20:42:25.441Z,15.90
2019-05-21T20:44:55.384Z,17.60
2019-05-21T20:47:24.762Z,14.23
2019-05-21T20:49:55.732Z,14.25
2019-05-21T20:52:25.776Z,14.68
2019-05-21T20:54:57.163Z,14.20
2019-05-21T20:57:27.102Z,14.23
2019-05-21T20:59:57.626Z,13.70
2019-05-21T21:02:28.434Z,14.28
2019-05-21T21:04:58.166Z,15.43
2019-05-21T21:07:27.653Z,17.52
2019-05-21T21:09:57.261Z,14.35
2019-05-21T21:12:27.807Z,14.30
2019-05-21T21:14:58.114Z,15.25
2019-05-21T21:17:27.800Z,18.70
2019-05-21T21:19:57.148Z,14.15
2019-05-21T21:22:26.478Z,17.90
2019-05-21T21:24:55.852Z,14.18
2019-05-21T21:27:27.288Z,14.53
2019-05-21T21:29:56.611Z,15.58
2019-05-21T21:32:26.937Z,16.10
2019-05-21T21:34:56.466Z,17.70
2019-05-21T21:37:26.140Z,14.58
2019-05-21T21:39:55.595Z,16.32
2019-05-21T21:42:25.356Z,15.32
2019-05-21T21:44:55.345Z,15.00
2019-05-21T21:47:25.993Z,15.88
2019-05-21T21:49:56.252Z,15.03
2019-05-21T21:52:26.401Z,16.70
2019-05-21T21:54:55.722Z,16.50
2019-05-21T21:57:25.042Z,19.45
2019-05-21T21:59:55.629Z,19.65
2019-05-21T22:02:31.048Z,18.37
2019-05-21T22:05:02.470Z,20.17
2019-05-21T22:07:35.407Z,21.02
2019-05-21T22:10:08.746Z,21.68
2019-05-21T22:12:38.435Z,20.65
2019-05-21T22:15:09.380Z,18.35
2019-05-21T22:17:38.990Z,19.98
2019-05-21T22:20:09.818Z,21.27
2019-05-21T22:22:39.833Z,19.85
2019-05-21T22:25:09.757Z,18.40
2019-05-21T22:27:39.660Z,21.48
2019-05-21T22:30:09.148Z,20.23
2019-05-21T22:32:38.778Z,21.15
2019-05-21T22:35:08.563Z,18.40
2019-05-21T22:37:37.950Z,18.67
2019-05-21T22:40:08.177Z,20.72
2019-05-21T22:42:37.963Z,19.20
2019-05-21T22:45:09.592Z,18.85
2019-05-21T22:47:38.908Z,18.67
2019-05-21T22:50:09.194Z,18.37
2019-05-21T22:52:38.577Z,19.23
2019-05-21T22:55:08.039Z,19.82
2019-05-21T22:57:37.889Z,21.37
2019-05-21T23:00:08.508Z,18.87
2019-05-21T23:02:39.530Z,21.25
2019-05-21T23:05:09.353Z,18.27
2019-05-21T23:07:38.692Z,20.10
2019-05-21T23:10:10.686Z,23.45
2019-05-21T23:12:41.201Z,19.82
2019-05-21T23:15:24.409Z,20.00
2019-05-21T23:17:45.051Z,19.05
2019-05-21T23:20:14.814Z,19.15
2019-05-21T23:22:44.914Z,18.75
2019-05-21T23:25:15.373Z,19.23
2019-05-21T23:27:45.293Z,22.73
2019-05-21T23:30:18.525Z,22.35
2019-05-21T23:32:48.545Z,22.80
2019-05-21T23:35:18.304Z,22.62
2019-05-21T23:37:51.932Z,22.07
2019-05-21T23:40:24.899Z,24.77
2019-05-21T23:42:57.147Z,24.72
2019-05-21T23:45:26.602Z,20.77
2019-05-21T23:47:55.989Z,20.92
2019-05-21T23:50:28.042Z,22.45
2019-05-21T23:52:59.323Z,21.00
2019-05-21T23:55:28.990Z,19.67
2019-05-21T23:57:59.106Z,19.92
